createdAt,value
2018-06-09T00:00:42.308Z,0.00
2018-06-09T00:01:42.523Z,0.00
2018-06-09T00:02:42.817Z,0.00
2018-06-09T00:03:51.703Z,0.00
2018-06-09T00:04:52.054Z,0.00
2018-06-09T00:05:43.805Z,0.00
2018-06-09T00:06:44.060Z,0.00
2018-06-09T00:07:44.275Z,0.00
2018-06-09T00:08:44.517Z,0.00
2018-06-09T00:09:44.773Z,0.00
2018-06-09T00:10:44.995Z,0.00
2018-06-09T00:11:45.224Z,0.00
2018-06-09T00:12:45.476Z,0.00
2018-06-09T00:13:45.708Z,0.00
2018-06-09T00:14:45.950Z,0.00
2018-06-09T00:15:46.182Z,0.00
2018-06-09T00:16:46.425Z,0.00
2018-06-09T00:17:46.664Z,0.00
2018-06-09T00:18:46.901Z,0.00
2018-06-09T00:19:47.162Z,0.00
2018-06-09T00:20:47.389Z,0.00
2018-06-09T00:21:47.629Z,0.00
2018-06-09T00:22:47.886Z,0.00
2018-06-09T00:23:48.107Z,0.00
2018-06-09T00:24:48.340Z,0.00
2018-06-09T00:25:48.593Z,0.00
2018-06-09T00:26:48.844Z,0.00
2018-06-09T00:27:49.063Z,0.00
2018-06-09T00:28:49.310Z,0.00
2018-06-09T00:29:49.544Z,0.00
2018-06-09T00:30:49.785Z,0.00
2018-06-09T00:31:50.041Z,0.00
2018-06-09T00:32:50.265Z,0.00
2018-06-09T00:33:50.515Z,0.00
2018-06-09T00:34:50.763Z,0.00
2018-06-09T00:35:51.054Z,0.00
2018-06-09T00:36:51.229Z,0.00
2018-06-09T00:37:51.473Z,0.00
2018-06-09T00:38:51.719Z,0.00
2018-06-09T00:39:51.952Z,0.00
2018-06-09T00:40:52.193Z,0.00
2018-06-09T00:41:52.447Z,0.00
2018-06-09T00:42:52.685Z,0.00
2018-06-09T00:43:52.914Z,0.00
2018-06-09T00:44:53.152Z,0.00
2018-06-09T00:45:53.405Z,0.00
2018-06-09T00:46:53.630Z,0.00
2018-06-09T00:47:53.875Z,0.00
2018-06-09T00:48:54.106Z,0.00
2018-06-09T00:49:54.366Z,0.00
2018-06-09T00:50:54.587Z,0.00
2018-06-09T00:51:54.844Z,0.00
2018-06-09T00:52:55.071Z,0.00
2018-06-09T00:53:55.329Z,0.00
2018-06-09T00:54:55.548Z,0.00
2018-06-09T00:55:55.810Z,0.00
2018-06-09T00:56:56.023Z,0.00
2018-06-09T00:57:56.253Z,0.00
2018-06-09T00:58:56.500Z,0.00
2018-06-09T00:59:56.744Z,0.00
2018-06-09T01:00:56.980Z,0.00
2018-06-09T01:01:57.221Z,0.00
2018-06-09T01:02:57.462Z,0.00
2018-06-09T01:03:57.698Z,0.00
2018-06-09T01:04:57.924Z,0.00
2018-06-09T01:05:58.193Z,0.00
2018-06-09T01:06:58.437Z,0.00
2018-06-09T01:07:58.673Z,0.00
2018-06-09T01:08:58.952Z,0.00
2018-06-09T01:09:59.182Z,0.00
2018-06-09T01:10:59.424Z,0.00
2018-06-09T01:11:59.667Z,0.00
2018-06-09T01:12:59.911Z,0.00
2018-06-09T01:14:00.148Z,0.00
2018-06-09T01:15:00.392Z,0.00
2018-06-09T01:16:00.677Z,0.00
2018-06-09T01:17:00.887Z,0.00
2018-06-09T01:18:01.128Z,0.00
2018-06-09T01:19:01.358Z,0.00
2018-06-09T01:20:01.597Z,0.00
2018-06-09T01:21:01.840Z,0.00
2018-06-09T01:22:02.071Z,0.00
2018-06-09T01:23:02.312Z,0.00
2018-06-09T01:24:02.575Z,0.00
2018-06-09T01:25:02.781Z,0.00
2018-06-09T01:26:03.014Z,0.00
2018-06-09T01:27:03.250Z,0.00
2018-06-09T01:28:03.512Z,0.00
2018-06-09T01:29:03.771Z,0.00
2018-06-09T01:30:04.003Z,0.00
2018-06-09T01:31:04.238Z,0.00
2018-06-09T01:32:04.473Z,0.00
2018-06-09T01:33:04.709Z,0.00
2018-06-09T01:34:04.945Z,0.00
2018-06-09T01:35:05.196Z,0.00
2018-06-09T01:36:05.436Z,0.00
2018-06-09T01:37:05.660Z,0.00
2018-06-09T01:38:05.905Z,0.00
2018-06-09T01:39:06.142Z,0.00
2018-06-09T01:40:06.379Z,0.00
2018-06-09T01:41:06.626Z,0.00
2018-06-09T01:42:06.876Z,0.00
2018-06-09T01:43:07.110Z,0.00
2018-06-09T01:44:07.331Z,0.00
2018-06-09T01:45:07.589Z,0.00
2018-06-09T01:46:07.807Z,0.00
2018-06-09T01:47:08.044Z,0.00
2018-06-09T01:48:08.270Z,0.00
2018-06-09T01:49:08.503Z,0.00
2018-06-09T01:50:08.750Z,0.00
2018-06-09T01:51:09.001Z,0.00
2018-06-09T01:52:09.238Z,0.00
2018-06-09T01:53:09.467Z,0.00
2018-06-09T01:54:09.698Z,0.00
2018-06-09T01:55:09.939Z,0.00
2018-06-09T01:56:10.182Z,0.00
2018-06-09T01:57:10.435Z,0.00
2018-06-09T01:58:10.683Z,0.00
2018-06-09T01:59:10.897Z,0.00
2018-06-09T02:00:11.159Z,0.00
2018-06-09T02:01:11.390Z,0.00
2018-06-09T02:02:11.639Z,0.00
2018-06-09T02:03:11.870Z,0.00
2018-06-09T02:04:12.116Z,0.00
2018-06-09T02:05:12.352Z,0.00
2018-06-09T02:06:12.585Z,0.00
2018-06-09T02:07:12.829Z,0.00
2018-06-09T02:08:13.089Z,0.00
2018-06-09T02:09:13.357Z,0.00
2018-06-09T02:10:13.564Z,0.00
2018-06-09T02:11:13.812Z,0.00
2018-06-09T02:12:14.044Z,0.00
2018-06-09T02:13:14.287Z,0.00
2018-06-09T02:14:14.541Z,0.00
2018-06-09T02:15:14.779Z,0.00
2018-06-09T02:16:15.031Z,0.00
2018-06-09T02:17:15.269Z,0.00
2018-06-09T02:18:15.500Z,0.00
2018-06-09T02:19:15.713Z,0.00
2018-06-09T02:20:15.959Z,0.00
2018-06-09T02:21:16.207Z,0.00
2018-06-09T02:22:16.433Z,0.00
2018-06-09T02:23:16.699Z,0.00
2018-06-09T02:24:16.916Z,0.00
2018-06-09T02:25:17.185Z,0.00
2018-06-09T02:26:17.396Z,0.00
2018-06-09T02:27:17.624Z,0.00
2018-06-09T02:28:17.878Z,0.00
2018-06-09T02:29:18.109Z,0.00
2018-06-09T02:30:18.365Z,0.00
2018-06-09T02:31:18.620Z,0.00
2018-06-09T02:32:18.840Z,0.00
2018-06-09T02:33:19.065Z,0.00
2018-06-09T02:34:19.330Z,0.00
2018-06-09T02:35:19.554Z,0.00
2018-06-09T02:36:19.802Z,0.00
2018-06-09T02:37:20.017Z,0.00
2018-06-09T02:38:20.273Z,0.00
2018-06-09T02:39:20.493Z,0.00
2018-06-09T02:40:20.726Z,0.00
2018-06-09T02:41:20.984Z,0.00
2018-06-09T02:42:21.195Z,0.00
2018-06-09T02:43:21.424Z,0.00
2018-06-09T02:44:21.664Z,0.00
2018-06-09T02:45:21.901Z,0.00
2018-06-09T02:46:22.141Z,0.00
2018-06-09T02:47:22.385Z,0.00
2018-06-09T02:48:22.617Z,0.00
2018-06-09T02:49:22.847Z,0.00
2018-06-09T02:50:23.075Z,0.00
2018-06-09T02:51:23.326Z,0.00
2018-06-09T02:52:23.566Z,0.00
2018-06-09T02:53:23.804Z,0.00
2018-06-09T02:54:24.039Z,0.00
2018-06-09T02:55:24.280Z,0.00
2018-06-09T02:56:24.539Z,0.00
2018-06-09T02:57:24.772Z,0.00
2018-06-09T02:58:25.028Z,0.00
2018-06-09T02:59:25.274Z,0.00
2018-06-09T03:00:25.519Z,5.63
2018-06-09T03:01:25.747Z,5.63
2018-06-09T03:02:26.004Z,5.63
2018-06-09T03:03:26.256Z,5.63
2018-06-09T03:04:26.452Z,5.63
2018-06-09T03:05:26.708Z,5.63
2018-06-09T03:06:26.927Z,11.25
2018-06-09T03:07:27.168Z,11.25
2018-06-09T03:08:27.410Z,11.25
2018-06-09T03:09:27.645Z,11.25
2018-06-09T03:10:27.883Z,11.25
2018-06-09T03:11:28.104Z,16.88
2018-06-09T03:12:28.339Z,16.88
2018-06-09T03:13:28.602Z,16.88
2018-06-09T03:14:28.833Z,16.88
2018-06-09T03:15:29.056Z,16.88
2018-06-09T03:16:29.296Z,22.50
2018-06-09T03:17:29.524Z,22.50
2018-06-09T03:18:29.770Z,22.50
2018-06-09T03:19:30.035Z,28.13
2018-06-09T03:20:30.250Z,28.13
2018-06-09T03:21:30.494Z,28.13
2018-06-09T03:22:30.738Z,33.75
2018-06-09T03:23:30.974Z,33.75
2018-06-09T03:24:31.224Z,33.75
2018-06-09T03:25:31.472Z,39.38
2018-06-09T03:26:31.684Z,39.38
2018-06-09T03:27:31.926Z,45.00
2018-06-09T03:28:32.166Z,45.00
2018-06-09T03:29:32.437Z,50.63
2018-06-09T03:30:32.657Z,50.63
2018-06-09T03:31:32.919Z,50.63
2018-06-09T03:32:33.126Z,50.63
2018-06-09T03:33:33.364Z,56.25
2018-06-09T03:34:33.609Z,56.25
2018-06-09T03:35:33.851Z,61.88
2018-06-09T03:36:34.070Z,67.50
2018-06-09T03:37:34.325Z,73.13
2018-06-09T03:38:34.567Z,73.13
2018-06-09T03:39:34.791Z,73.13
2018-06-09T03:40:35.024Z,78.75
2018-06-09T03:41:35.254Z,78.75
2018-06-09T03:42:35.502Z,84.38
2018-06-09T03:43:35.732Z,90.00
2018-06-09T03:44:35.974Z,90.00
2018-06-09T03:45:36.229Z,95.63
2018-06-09T03:46:36.457Z,95.63
2018-06-09T03:47:36.701Z,95.63
2018-06-09T03:48:36.942Z,95.63
2018-06-09T03:49:37.176Z,106.88
2018-06-09T03:50:52.361Z,106.88
2018-06-09T03:51:37.673Z,106.88
2018-06-09T03:52:37.926Z,106.88
2018-06-09T03:53:38.177Z,106.88
2018-06-09T03:54:38.425Z,106.88
2018-06-09T03:55:38.678Z,112.50
2018-06-09T03:56:38.910Z,112.50
2018-06-09T03:57:39.160Z,112.50
2018-06-09T03:58:39.385Z,118.13
2018-06-09T03:59:39.618Z,123.75
2018-06-09T04:00:39.857Z,118.13
2018-06-09T04:01:40.117Z,118.13
2018-06-09T04:02:40.329Z,118.13
2018-06-09T04:03:40.582Z,118.13
2018-06-09T04:04:40.827Z,118.13
2018-06-09T04:05:41.061Z,123.75
2018-06-09T04:06:41.324Z,123.75
2018-06-09T04:07:41.544Z,123.75
2018-06-09T04:08:41.784Z,129.38
2018-06-09T04:09:42.011Z,140.63
2018-06-09T04:10:42.269Z,140.63
2018-06-09T04:11:42.509Z,140.63
2018-06-09T04:12:42.757Z,146.25
2018-06-09T04:13:42.980Z,146.25
2018-06-09T04:14:43.217Z,140.63
2018-06-09T04:15:43.475Z,135.00
2018-06-09T04:16:43.692Z,135.00
2018-06-09T04:17:43.929Z,135.00
2018-06-09T04:18:44.164Z,135.00
2018-06-09T04:19:44.408Z,135.00
2018-06-09T04:20:44.653Z,140.63
2018-06-09T04:21:44.899Z,140.63
2018-06-09T04:22:45.144Z,140.63
2018-06-09T04:23:45.390Z,146.25
2018-06-09T04:24:45.626Z,146.25
2018-06-09T04:25:45.867Z,146.25
2018-06-09T04:26:46.113Z,151.88
2018-06-09T04:27:46.392Z,151.88
2018-06-09T04:28:46.597Z,151.88
2018-06-09T04:29:46.837Z,146.25
2018-06-09T04:30:47.083Z,146.25
2018-06-09T04:31:47.321Z,151.88
2018-06-09T04:32:47.565Z,151.88
2018-06-09T04:33:47.807Z,151.88
2018-06-09T04:34:48.053Z,151.88
2018-06-09T04:35:48.308Z,157.50
2018-06-09T04:36:48.540Z,157.50
2018-06-09T04:37:48.787Z,157.50
2018-06-09T04:38:49.022Z,157.50
2018-06-09T04:39:49.320Z,157.50
2018-06-09T04:40:49.522Z,163.13
2018-06-09T04:41:49.753Z,157.50
2018-06-09T04:42:50.007Z,157.50
2018-06-09T04:43:50.246Z,157.50
2018-06-09T04:44:50.510Z,157.50
2018-06-09T04:45:50.727Z,157.50
2018-06-09T04:46:51.027Z,157.50
2018-06-09T04:47:51.302Z,157.50
2018-06-09T04:48:51.729Z,157.50
2018-06-09T04:49:51.758Z,157.50
2018-06-09T04:50:51.986Z,157.50
2018-06-09T04:51:52.319Z,157.50
2018-06-09T04:52:52.492Z,157.50
2018-06-09T04:54:01.268Z,163.13
2018-06-09T04:54:52.986Z,163.13
2018-06-09T04:55:53.209Z,163.13
2018-06-09T04:56:53.454Z,163.13
2018-06-09T04:57:53.698Z,163.13
2018-06-09T04:58:53.943Z,168.75
2018-06-09T04:59:54.190Z,168.75
2018-06-09T05:00:54.437Z,168.75
2018-06-09T05:01:54.683Z,174.38
2018-06-09T05:02:54.918Z,174.38
2018-06-09T05:03:55.167Z,174.38
2018-06-09T05:04:55.403Z,174.38
2018-06-09T05:05:55.642Z,174.38
2018-06-09T05:06:55.904Z,174.38
2018-06-09T05:07:56.116Z,174.38
2018-06-09T05:08:56.358Z,180.00
2018-06-09T05:09:56.603Z,180.00
2018-06-09T05:10:56.848Z,180.00
2018-06-09T05:11:57.096Z,180.00
2018-06-09T05:12:57.377Z,180.00
2018-06-09T05:13:57.569Z,180.00
2018-06-09T05:14:57.815Z,180.00
2018-06-09T05:15:58.035Z,180.00
2018-06-09T05:16:58.279Z,180.00
2018-06-09T05:17:58.514Z,180.00
2018-06-09T05:18:58.756Z,185.63
2018-06-09T05:19:59.030Z,185.63
2018-06-09T05:20:59.233Z,191.25
2018-06-09T05:21:59.498Z,196.88
2018-06-09T05:22:59.703Z,196.88
2018-06-09T05:23:59.952Z,202.50
2018-06-09T05:25:00.203Z,202.50
2018-06-09T05:26:00.494Z,208.13
2018-06-09T05:27:00.728Z,213.75
2018-06-09T05:28:01.006Z,213.75
2018-06-09T05:29:01.217Z,219.38
2018-06-09T05:30:01.507Z,225.00
2018-06-09T05:31:01.756Z,225.00
2018-06-09T05:32:02.010Z,230.63
2018-06-09T05:33:02.269Z,230.63
2018-06-09T05:34:02.524Z,241.88
2018-06-09T05:35:02.764Z,247.50
2018-06-09T05:36:03.008Z,241.88
2018-06-09T05:37:03.251Z,247.50
2018-06-09T05:38:03.494Z,253.13
2018-06-09T05:39:03.723Z,253.13
2018-06-09T05:40:03.969Z,258.75
2018-06-09T05:41:04.219Z,258.75
2018-06-09T05:42:04.460Z,264.38
2018-06-09T05:43:04.845Z,270.00
2018-06-09T05:44:05.018Z,275.63
2018-06-09T05:45:05.287Z,292.50
2018-06-09T05:46:05.508Z,292.50
2018-06-09T05:47:05.738Z,292.50
2018-06-09T05:48:05.982Z,292.50
2018-06-09T05:49:06.243Z,298.13
2018-06-09T05:50:06.509Z,309.38
2018-06-09T05:51:06.750Z,326.25
2018-06-09T05:52:06.989Z,343.13
2018-06-09T05:53:07.234Z,343.13
2018-06-09T05:54:07.474Z,354.38
2018-06-09T05:55:07.719Z,360.00
2018-06-09T05:56:07.966Z,371.25
2018-06-09T05:57:08.214Z,376.88
2018-06-09T05:58:08.466Z,388.13
2018-06-09T05:59:08.764Z,393.75
2018-06-09T06:00:09.004Z,399.38
2018-06-09T06:01:09.255Z,405.00
2018-06-09T06:02:09.522Z,410.63
2018-06-09T06:03:09.805Z,421.88
2018-06-09T06:04:10.021Z,421.88
2018-06-09T06:05:10.249Z,427.50
2018-06-09T06:06:10.491Z,427.50
2018-06-09T06:07:10.736Z,427.50
2018-06-09T06:08:10.973Z,421.88
2018-06-09T06:09:11.206Z,427.50
2018-06-09T06:10:11.445Z,421.88
2018-06-09T06:11:11.725Z,421.88
2018-06-09T06:12:12.003Z,421.88
2018-06-09T06:13:12.300Z,427.50
2018-06-09T06:14:12.547Z,427.50
2018-06-09T06:15:12.885Z,427.50
2018-06-09T06:16:13.142Z,438.75
2018-06-09T06:17:13.371Z,433.13
2018-06-09T06:18:13.606Z,433.13
2018-06-09T06:19:13.852Z,433.13
2018-06-09T06:20:14.091Z,427.50
2018-06-09T06:21:14.346Z,427.50
2018-06-09T06:22:14.580Z,427.50
2018-06-09T06:23:14.825Z,433.13
2018-06-09T06:24:15.079Z,427.50
2018-06-09T06:25:15.331Z,427.50
2018-06-09T06:26:15.567Z,427.50
2018-06-09T06:27:15.836Z,427.50
2018-06-09T06:28:16.083Z,421.88
2018-06-09T06:29:16.329Z,421.88
2018-06-09T06:30:16.562Z,416.25
2018-06-09T06:31:16.789Z,416.25
2018-06-09T06:32:17.043Z,416.25
2018-06-09T06:33:17.301Z,416.25
2018-06-09T06:34:17.528Z,416.25
2018-06-09T06:35:17.783Z,421.88
2018-06-09T06:36:18.002Z,421.88
2018-06-09T06:37:18.246Z,421.88
2018-06-09T06:38:18.493Z,427.50
2018-06-09T06:39:18.729Z,427.50
2018-06-09T06:40:18.971Z,433.13
2018-06-09T06:41:19.212Z,433.13
2018-06-09T06:42:19.448Z,438.75
2018-06-09T06:43:19.695Z,438.75
2018-06-09T06:44:19.944Z,438.75
2018-06-09T06:45:20.207Z,438.75
2018-06-09T06:46:20.446Z,444.38
2018-06-09T06:47:20.674Z,450.00
2018-06-09T06:48:20.921Z,450.00
2018-06-09T06:49:21.157Z,450.00
2018-06-09T06:50:21.514Z,455.63
2018-06-09T06:51:21.666Z,450.00
2018-06-09T06:52:21.907Z,450.00
2018-06-09T06:53:22.150Z,450.00
2018-06-09T06:54:22.393Z,450.00
2018-06-09T06:55:22.650Z,450.00
2018-06-09T06:56:22.885Z,455.63
2018-06-09T06:57:23.133Z,466.88
2018-06-09T06:58:23.393Z,466.88
2018-06-09T06:59:23.634Z,466.88
2018-06-09T07:00:23.878Z,472.50
2018-06-09T07:01:24.113Z,483.75
2018-06-09T07:02:24.362Z,495.00
2018-06-09T07:03:24.613Z,506.25
2018-06-09T07:04:24.839Z,523.13
2018-06-09T07:05:25.077Z,534.38
2018-06-09T07:06:25.346Z,551.25
2018-06-09T07:07:34.365Z,568.13
2018-06-09T07:08:26.039Z,579.38
2018-06-09T07:09:26.272Z,585.00
2018-06-09T07:10:26.535Z,590.63
2018-06-09T07:11:26.717Z,601.88
2018-06-09T07:12:26.965Z,590.63
2018-06-09T07:13:27.279Z,579.38
2018-06-09T07:14:27.470Z,585.00
2018-06-09T07:15:27.725Z,590.63
2018-06-09T07:16:27.987Z,596.25
2018-06-09T07:17:28.213Z,601.88
2018-06-09T07:18:28.459Z,613.13
2018-06-09T07:19:28.696Z,641.25
2018-06-09T07:20:28.969Z,725.63
2018-06-09T07:21:29.183Z,793.13
2018-06-09T07:22:29.453Z,815.63
2018-06-09T07:23:29.676Z,815.63
2018-06-09T07:24:29.930Z,798.75
2018-06-09T07:25:30.167Z,793.13
2018-06-09T07:26:30.406Z,781.88
2018-06-09T07:27:30.659Z,770.63
2018-06-09T07:28:30.923Z,776.25
2018-06-09T07:29:31.146Z,787.50
2018-06-09T07:30:31.403Z,787.50
2018-06-09T07:31:31.665Z,787.50
2018-06-09T07:32:31.887Z,787.50
2018-06-09T07:33:32.162Z,781.88
2018-06-09T07:34:32.390Z,781.88
2018-06-09T07:35:32.635Z,776.25
2018-06-09T07:36:32.866Z,765.00
2018-06-09T07:37:33.122Z,765.00
2018-06-09T07:38:33.406Z,765.00
2018-06-09T07:39:33.672Z,765.00
2018-06-09T07:40:33.912Z,765.00
2018-06-09T07:41:34.166Z,759.38
2018-06-09T07:42:34.430Z,753.75
2018-06-09T07:43:34.667Z,753.75
2018-06-09T07:44:34.927Z,759.38
2018-06-09T07:45:35.190Z,753.75
2018-06-09T07:46:35.442Z,753.75
2018-06-09T07:47:35.694Z,759.38
2018-06-09T07:48:35.960Z,787.50
2018-06-09T07:49:36.213Z,781.88
2018-06-09T07:50:36.450Z,793.13
2018-06-09T07:51:36.713Z,810.00
2018-06-09T07:52:36.946Z,821.25
2018-06-09T07:53:37.197Z,838.13
2018-06-09T07:54:37.453Z,855.00
2018-06-09T07:55:37.708Z,883.13
2018-06-09T07:56:37.964Z,905.63
2018-06-09T07:57:38.219Z,933.75
2018-06-09T07:58:38.476Z,956.25
2018-06-09T07:59:38.784Z,984.38
2018-06-09T08:00:38.989Z,995.63
2018-06-09T08:01:39.247Z,1012.50
2018-06-09T08:02:39.502Z,1023.75
2018-06-09T08:03:39.756Z,1023.75
2018-06-09T08:04:40.012Z,1023.75
2018-06-09T08:05:40.268Z,1023.75
2018-06-09T08:06:40.523Z,1029.38
2018-06-09T08:07:40.780Z,1029.38
2018-06-09T08:08:41.036Z,1035.00
2018-06-09T08:09:41.300Z,1046.25
2018-06-09T08:10:41.551Z,1051.88
2018-06-09T08:11:41.808Z,1057.50
2018-06-09T08:12:42.064Z,1057.50
2018-06-09T08:13:42.320Z,1063.13
2018-06-09T08:14:42.578Z,1068.75
2018-06-09T08:15:42.832Z,1080.00
2018-06-09T08:16:43.092Z,1091.25
2018-06-09T08:17:43.346Z,1102.50
2018-06-09T08:18:43.602Z,1113.75
2018-06-09T08:19:43.857Z,1119.38
2018-06-09T08:20:44.113Z,1125.00
2018-06-09T08:21:44.368Z,1130.63
2018-06-09T08:22:44.627Z,1158.75
2018-06-09T08:23:44.881Z,1170.00
2018-06-09T08:24:45.135Z,1175.63
2018-06-09T08:25:45.384Z,1203.75
2018-06-09T08:26:45.646Z,1220.63
2018-06-09T08:27:45.899Z,1226.25
2018-06-09T08:28:46.155Z,1243.13
2018-06-09T08:29:46.406Z,1248.75
2018-06-09T08:30:46.657Z,1215.00
2018-06-09T08:31:46.912Z,1254.38
2018-06-09T08:32:47.159Z,1248.75
2018-06-09T08:33:47.422Z,1271.25
2018-06-09T08:34:47.679Z,1305.00
2018-06-09T08:35:47.936Z,1305.00
2018-06-09T08:36:48.193Z,1327.50
2018-06-09T08:37:48.465Z,1333.13
2018-06-09T08:38:48.795Z,1344.38
2018-06-09T08:39:49.004Z,1344.38
2018-06-09T08:40:49.249Z,1288.13
2018-06-09T08:41:49.501Z,1192.50
2018-06-09T08:42:49.757Z,1125.00
2018-06-09T08:43:50.004Z,1085.63
2018-06-09T08:44:50.265Z,1068.75
2018-06-09T08:45:50.507Z,1057.50
2018-06-09T08:46:50.818Z,1051.88
2018-06-09T08:47:51.038Z,1051.88
2018-06-09T08:48:51.298Z,1046.25
2018-06-09T08:49:51.580Z,1046.25
2018-06-09T08:50:51.847Z,1035.00
2018-06-09T08:51:52.059Z,1046.25
2018-06-09T08:52:52.301Z,1035.00
2018-06-09T08:53:52.562Z,1018.13
2018-06-09T08:54:52.849Z,1006.88
2018-06-09T08:55:55.136Z,1006.88
2018-06-09T08:56:53.470Z,1001.25
2018-06-09T08:57:53.703Z,995.63
2018-06-09T08:58:53.941Z,995.63
2018-06-09T08:59:54.211Z,1001.25
2018-06-09T09:00:54.474Z,990.00
2018-06-09T09:01:54.703Z,990.00
2018-06-09T09:02:55.003Z,990.00
2018-06-09T09:03:55.231Z,995.63
2018-06-09T09:04:55.476Z,1001.25
2018-06-09T09:05:55.739Z,1012.50
2018-06-09T09:06:56.001Z,995.63
2018-06-09T09:07:56.324Z,995.63
2018-06-09T09:08:56.529Z,995.63
2018-06-09T09:09:56.795Z,1001.25
2018-06-09T09:10:57.052Z,978.75
2018-06-09T09:11:57.306Z,984.38
2018-06-09T09:12:57.540Z,995.63
2018-06-09T09:13:57.836Z,995.63
2018-06-09T09:14:58.125Z,1006.88
2018-06-09T09:15:58.408Z,1029.38
2018-06-09T09:16:58.701Z,1006.88
2018-06-09T09:17:58.985Z,1012.50
2018-06-09T09:18:59.259Z,1023.75
2018-06-09T09:19:59.521Z,1023.75
2018-06-09T09:20:59.835Z,1035.00
2018-06-09T09:22:00.092Z,1029.38
2018-06-09T09:23:00.285Z,1035.00
2018-06-09T09:24:00.571Z,1035.00
2018-06-09T09:25:00.808Z,1035.00
2018-06-09T09:26:01.091Z,1035.00
2018-06-09T09:27:01.334Z,1040.63
2018-06-09T09:28:01.588Z,1035.00
2018-06-09T09:29:01.848Z,1035.00
2018-06-09T09:30:02.113Z,1035.00
2018-06-09T09:31:02.386Z,1040.63
2018-06-09T09:32:02.646Z,1040.63
2018-06-09T09:33:02.888Z,1046.25
2018-06-09T09:34:03.137Z,1046.25
2018-06-09T09:35:03.390Z,1040.63
2018-06-09T09:36:03.638Z,1040.63
2018-06-09T09:37:03.898Z,1040.63
2018-06-09T09:38:04.154Z,1040.63
2018-06-09T09:39:04.411Z,1040.63
2018-06-09T09:40:04.684Z,1046.25
2018-06-09T09:41:04.934Z,1040.63
2018-06-09T09:42:05.191Z,1051.88
2018-06-09T09:43:05.447Z,1063.13
2018-06-09T09:44:05.699Z,1063.13
2018-06-09T09:45:05.967Z,1057.50
2018-06-09T09:46:06.245Z,1068.75
2018-06-09T09:47:06.487Z,1074.38
2018-06-09T09:48:06.782Z,1068.75
2018-06-09T09:49:07.001Z,1063.13
2018-06-09T09:50:14.937Z,1068.75
2018-06-09T09:51:07.590Z,1074.38
2018-06-09T09:52:07.848Z,1074.38
2018-06-09T09:53:08.081Z,1080.00
2018-06-09T09:54:08.348Z,1091.25
2018-06-09T09:55:08.604Z,1080.00
2018-06-09T09:56:08.856Z,1085.63
2018-06-09T09:57:09.119Z,1080.00
2018-06-09T09:58:09.370Z,1085.63
2018-06-09T09:59:09.622Z,1085.63
2018-06-09T10:00:09.883Z,1091.25
2018-06-09T10:01:10.135Z,1096.88
2018-06-09T10:02:10.399Z,1102.50
2018-06-09T10:03:10.648Z,1113.75
2018-06-09T10:04:10.917Z,1141.88
2018-06-09T10:05:11.170Z,1136.25
2018-06-09T10:06:11.423Z,1141.88
2018-06-09T10:07:11.673Z,1158.75
2018-06-09T10:08:11.924Z,1170.00
2018-06-09T10:09:12.196Z,1198.13
2018-06-09T10:10:12.474Z,1203.75
2018-06-09T10:11:12.731Z,1310.63
2018-06-09T10:12:12.967Z,1777.50
2018-06-09T10:13:13.227Z,2227.50
2018-06-09T10:14:13.487Z,2295.00
2018-06-09T10:15:13.743Z,2295.00
2018-06-09T10:16:14.038Z,2289.38
2018-06-09T10:17:14.250Z,2278.13
2018-06-09T10:18:14.521Z,2283.75
2018-06-09T10:19:14.773Z,2317.50
2018-06-09T10:20:15.025Z,2452.50
2018-06-09T10:21:15.312Z,2514.38
2018-06-09T10:22:15.544Z,2531.25
2018-06-09T10:23:15.804Z,2548.13
2018-06-09T10:24:16.056Z,2559.38
2018-06-09T10:25:16.322Z,2559.38
2018-06-09T10:26:16.571Z,2565.00
2018-06-09T10:27:16.832Z,2587.50
2018-06-09T10:28:17.090Z,2576.25
2018-06-09T10:29:17.376Z,2565.00
2018-06-09T10:30:17.619Z,2508.75
2018-06-09T10:31:17.873Z,2576.25
2018-06-09T10:32:18.125Z,2621.25
2018-06-09T10:33:18.384Z,2638.13
2018-06-09T10:34:18.651Z,2632.50
2018-06-09T10:35:18.915Z,2643.75
2018-06-09T10:36:19.167Z,2666.25
2018-06-09T10:37:19.424Z,2666.25
2018-06-09T10:38:19.673Z,2694.38
2018-06-09T10:39:19.933Z,2716.88
2018-06-09T10:40:20.201Z,2716.88
2018-06-09T10:41:20.443Z,2716.88
2018-06-09T10:42:20.687Z,2739.38
2018-06-09T10:43:20.941Z,2745.00
2018-06-09T10:44:21.189Z,2756.25
2018-06-09T10:45:21.480Z,2767.50
2018-06-09T10:46:21.709Z,2756.25
2018-06-09T10:47:21.982Z,2452.50
2018-06-09T10:48:22.251Z,2750.63
2018-06-09T10:49:22.482Z,2795.63
2018-06-09T10:50:22.725Z,961.88
2018-06-09T10:51:23.020Z,1366.88
2018-06-09T10:52:23.288Z,877.50
2018-06-09T10:53:23.532Z,2739.38
2018-06-09T10:54:23.779Z,2728.13
2018-06-09T10:55:24.054Z,2722.50
2018-06-09T10:56:24.306Z,2694.38
2018-06-09T10:57:24.632Z,2806.88
2018-06-09T10:58:24.837Z,2835.00
2018-06-09T10:59:25.090Z,1569.38
2018-06-09T11:00:25.343Z,1299.38
2018-06-09T11:01:25.655Z,916.88
2018-06-09T11:02:25.872Z,2925.00
2018-06-09T11:03:26.121Z,2896.88
2018-06-09T11:04:26.387Z,905.63
2018-06-09T11:05:26.669Z,2778.75
2018-06-09T11:06:26.888Z,2896.88
2018-06-09T11:07:27.150Z,2266.88
2018-06-09T11:08:27.391Z,2137.50
2018-06-09T11:09:27.658Z,1147.50
2018-06-09T11:10:27.920Z,2677.50
2018-06-09T11:11:28.165Z,2626.88
2018-06-09T11:12:28.469Z,1074.38
2018-06-09T11:13:28.718Z,2880.00
2018-06-09T11:14:28.971Z,2919.38
2018-06-09T11:15:29.227Z,2874.38
2018-06-09T11:16:29.480Z,2829.38
2018-06-09T11:17:29.751Z,2930.63
2018-06-09T11:18:29.997Z,2981.25
2018-06-09T11:19:30.253Z,2002.50
2018-06-09T11:20:30.500Z,1845.00
2018-06-09T11:21:30.758Z,990.00
2018-06-09T11:22:31.014Z,1822.50
2018-06-09T11:23:31.259Z,2908.13
2018-06-09T11:24:31.542Z,2919.38
2018-06-09T11:25:31.772Z,2970.00
2018-06-09T11:26:32.042Z,2958.75
2018-06-09T11:27:32.285Z,2840.63
2018-06-09T11:28:32.593Z,2925.00
2018-06-09T11:29:32.832Z,2896.88
2018-06-09T11:30:33.239Z,978.75
2018-06-09T11:31:33.561Z,973.13
2018-06-09T11:32:33.847Z,1085.63
2018-06-09T11:33:34.091Z,2795.63
2018-06-09T11:34:34.437Z,2452.50
2018-06-09T11:35:34.686Z,2705.63
2018-06-09T11:36:35.040Z,2660.63
2018-06-09T11:37:35.304Z,2716.88
2018-06-09T11:38:35.574Z,2739.38
2018-06-09T11:39:35.842Z,2711.25
2018-06-09T11:40:36.164Z,1333.13
2018-06-09T11:41:36.639Z,860.63
2018-06-09T11:42:37.001Z,894.38
2018-06-09T11:43:37.285Z,1344.38
2018-06-09T11:44:37.530Z,1406.25
2018-06-09T11:45:37.795Z,1355.63
2018-06-09T11:46:38.041Z,1288.13
2018-06-09T11:47:38.310Z,984.38
2018-06-09T11:48:38.584Z,849.38
2018-06-09T11:49:38.896Z,815.63
2018-06-09T11:50:39.169Z,798.75
2018-06-09T11:51:39.412Z,798.75
2018-06-09T11:52:39.753Z,815.63
2018-06-09T11:53:39.968Z,1175.63
2018-06-09T11:54:40.234Z,1248.75
2018-06-09T11:55:40.515Z,1265.63
2018-06-09T11:56:40.745Z,1271.25
2018-06-09T11:57:41.008Z,1254.38
2018-06-09T11:58:41.310Z,1243.13
2018-06-09T11:59:41.516Z,1243.13
2018-06-09T12:00:41.777Z,1248.75
2018-06-09T12:01:42.065Z,1248.75
2018-06-09T12:02:42.294Z,1243.13
2018-06-09T12:03:42.555Z,1231.88
2018-06-09T12:04:42.857Z,1215.00
2018-06-09T12:05:43.065Z,1198.13
2018-06-09T12:06:43.348Z,1181.25
2018-06-09T12:07:43.585Z,1074.38
2018-06-09T12:08:43.875Z,1102.50
2018-06-09T12:09:44.136Z,838.13
2018-06-09T12:10:44.434Z,826.88
2018-06-09T12:11:44.717Z,826.88
2018-06-09T12:12:44.952Z,826.88
2018-06-09T12:13:45.221Z,838.13
2018-06-09T12:14:45.528Z,1085.63
2018-06-09T12:15:45.769Z,1153.13
2018-06-09T12:16:46.027Z,1192.50
2018-06-09T12:17:46.286Z,1209.38
2018-06-09T12:18:46.520Z,1203.75
2018-06-09T12:19:46.768Z,1203.75
2018-06-09T12:20:47.059Z,1175.63
2018-06-09T12:21:47.326Z,1164.38
2018-06-09T12:22:47.549Z,1164.38
2018-06-09T12:23:47.783Z,1170.00
2018-06-09T12:24:48.061Z,1164.38
2018-06-09T12:25:48.303Z,1158.75
2018-06-09T12:26:48.558Z,1147.50
2018-06-09T12:27:48.872Z,1153.13
2018-06-09T12:28:49.089Z,1141.88
2018-06-09T12:29:49.321Z,1141.88
2018-06-09T12:30:49.578Z,1147.50
2018-06-09T12:31:49.826Z,1158.75
2018-06-09T12:32:50.089Z,1170.00
2018-06-09T12:33:50.341Z,1175.63
2018-06-09T12:34:50.617Z,1158.75
2018-06-09T12:35:50.883Z,1147.50
2018-06-09T12:36:51.115Z,1147.50